sensor_id;sensor_type;location;lat;lon;timestamp;pressure;altitude;pressure_sealevel;temperature;humidity
64753;BME280;61095;52.454;16.948;2023-06-22T06:04:27;100932.56;;;30.15;42.51
64753;BME280;61095;52.454;16.948;2023-06-22T06:09:29;100938.44;;;30.44;42.52
64753;BME280;61095;52.454;16.948;2023-06-22T06:14:29;100931.56;;;30.66;41.97
64753;BME280;61095;52.454;16.948;2023-06-22T06:19:31;100926.69;;;30.94;41.67
64753;BME280;61095;52.454;16.948;2023-06-22T06:24:31;100943.59;;;31.14;40.92
64753;BME280;61095;52.454;16.948;2023-06-22T06:29:32;100934.56;;;31.22;40.29
64753;BME280;61095;52.454;16.948;2023-06-22T06:34:34;100933.38;;;31.16;39.98
64753;BME280;61095;52.454;16.948;2023-06-22T06:39:34;100938.13;;;31.22;39.62
64753;BME280;61095;52.454;16.948;2023-06-22T06:44:34;100941.03;;;31.29;39.84
64753;BME280;61095;52.454;16.948;2023-06-22T06:49:36;100938.47;;;31.27;39.12
64753;BME280;61095;52.454;16.948;2023-06-22T06:54:36;100944.09;;;31.26;39.68
64753;BME280;61095;52.454;16.948;2023-06-22T06:59:37;100955.03;;;31.42;39.50
64753;BME280;61095;52.454;16.948;2023-06-22T07:04:38;100959.28;;;31.44;39.33
64753;BME280;61095;52.454;16.948;2023-06-22T07:09:39;100976.13;;;31.32;38.63
64753;BME280;61095;52.454;16.948;2023-06-22T07:14:39;100956.91;;;31.41;38.57
64753;BME280;61095;52.454;16.948;2023-06-22T07:19:41;100959.44;;;31.35;37.42
64753;BME280;61095;52.454;16.948;2023-06-22T07:24:41;100960.09;;;31.37;37.47
64753;BME280;61095;52.454;16.948;2023-06-22T07:29:41;100963.72;;;31.45;37.43
64753;BME280;61095;52.454;16.948;2023-06-22T07:34:43;100955.00;;;31.50;37.34
64753;BME280;61095;52.454;16.948;2023-06-22T07:39:43;100945.44;;;31.38;37.15
64753;BME280;61095;52.454;16.948;2023-06-22T07:44:44;100946.84;;;31.50;36.75
64753;BME280;61095;52.454;16.948;2023-06-22T07:49:46;100950.25;;;31.11;36.70
64753;BME280;61095;52.454;16.948;2023-06-22T07:54:46;100946.16;;;31.15;36.94
64753;BME280;61095;52.454;16.948;2023-06-22T07:59:46;100946.44;;;30.96;36.91
64753;BME280;61095;52.454;16.948;2023-06-22T08:04:48;100959.44;;;31.19;36.16
64753;BME280;61095;52.454;16.948;2023-06-22T08:09:48;100951.78;;;31.46;36.28
64753;BME280;61095;52.454;16.948;2023-06-22T08:14:49;100947.47;;;31.76;35.88
64753;BME280;61095;52.454;16.948;2023-06-22T08:19:50;100946.25;;;31.87;34.02
64753;BME280;61095;52.454;16.948;2023-06-22T08:24:51;100932.59;;;31.87;34.12
64753;BME280;61095;52.454;16.948;2023-06-22T08:29:51;100946.63;;;31.60;33.12
64753;BME280;61095;52.454;16.948;2023-06-22T08:34:53;100938.81;;;31.32;33.91
64753;BME280;61095;52.454;16.948;2023-06-22T08:39:54;100944.28;;;31.48;34.18
64753;BME280;61095;52.454;16.948;2023-06-22T08:44:55;100943.91;;;31.76;34.31
64753;BME280;61095;52.454;16.948;2023-06-22T08:49:57;100942.50;;;31.96;33.17
64753;BME280;61095;52.454;16.948;2023-06-22T08:54:57;100934.19;;;31.73;32.52
64753;BME280;61095;52.454;16.948;2023-06-22T08:59:58;100938.31;;;31.21;33.50
64753;BME280;61095;52.454;16.948;2023-06-22T09:05:03;100929.75;;;30.99;34.40
64753;BME280;61095;52.454;16.948;2023-06-22T09:10:04;100916.50;;;31.12;34.42
64753;BME280;61095;52.454;16.948;2023-06-22T09:15:06;100903.53;;;31.23;33.02
64753;BME280;61095;52.454;16.948;2023-06-22T09:20:09;100907.63;;;31.10;33.08
64753;BME280;61095;52.454;16.948;2023-06-22T09:25:09;100911.19;;;31.27;32.76
64753;BME280;61095;52.454;16.948;2023-06-22T09:30:10;100918.13;;;30.89;31.54
64753;BME280;61095;52.454;16.948;2023-06-22T09:35:12;100905.81;;;30.52;31.82
64753;BME280;61095;52.454;16.948;2023-06-22T09:40:12;100897.16;;;30.65;31.85
64753;BME280;61095;52.454;16.948;2023-06-22T09:45:13;100890.19;;;30.87;31.63
64753;BME280;61095;52.454;16.948;2023-06-22T09:50:14;100891.94;;;31.04;31.37
64753;BME280;61095;52.454;16.948;2023-06-22T09:55:15;100895.72;;;31.11;31.56
64753;BME280;61095;52.454;16.948;2023-06-22T10:00:16;100886.81;;;31.34;31.45
64753;BME280;61095;52.454;16.948;2023-06-22T10:05:18;100885.81;;;30.94;31.40
64753;BME280;61095;52.454;16.948;2023-06-22T10:10:18;100887.63;;;30.69;31.82
64753;BME280;61095;52.454;16.948;2023-06-22T10:15:19;100896.31;;;30.65;31.38
64753;BME280;61095;52.454;16.948;2023-06-22T10:20:20;100891.22;;;30.78;31.78
64753;BME280;61095;52.454;16.948;2023-06-22T10:25:21;100889.88;;;30.98;31.78
64753;BME280;61095;52.454;16.948;2023-06-22T10:30:22;100875.59;;;31.12;31.17
64753;BME280;61095;52.454;16.948;2023-06-22T10:35:24;100879.00;;;31.14;31.14
64753;BME280;61095;52.454;16.948;2023-06-22T10:40:24;100890.59;;;31.16;31.53
64753;BME280;61095;52.454;16.948;2023-06-22T10:45:24;100887.88;;;31.16;31.52
64753;BME280;61095;52.454;16.948;2023-06-22T10:50:26;100894.97;;;30.93;31.08
64753;BME280;61095;52.454;16.948;2023-06-22T10:55:27;100885.41;;;30.65;31.34
64753;BME280;61095;52.454;16.948;2023-06-22T11:00:27;100886.34;;;30.39;31.45
64753;BME280;61095;52.454;16.948;2023-06-22T11:05:29;100873.84;;;30.12;31.67
64753;BME280;61095;52.454;16.948;2023-06-22T11:10:29;100882.19;;;29.85;31.89
64753;BME280;61095;52.454;16.948;2023-06-22T11:15:29;100871.78;;;29.80;32.17
64753;BME280;61095;52.454;16.948;2023-06-22T11:20:31;100867.69;;;30.02;32.08
64753;BME280;61095;52.454;16.948;2023-06-22T11:25:32;100851.25;;;30.36;32.05
64753;BME280;61095;52.454;16.948;2023-06-22T11:30:32;100844.00;;;30.53;31.39
64753;BME280;61095;52.454;16.948;2023-06-22T11:35:34;100846.72;;;30.53;31.16
64753;BME280;61095;52.454;16.948;2023-06-22T11:40:34;100844.00;;;30.53;31.40
64753;BME280;61095;52.454;16.948;2023-06-22T11:45:35;100844.03;;;30.61;31.43
64753;BME280;61095;52.454;16.948;2023-06-22T11:50:36;100831.78;;;30.81;31.86
64753;BME280;61095;52.454;16.948;2023-06-22T11:55:37;100826.50;;;30.88;31.83
64753;BME280;61095;52.454;16.948;2023-06-22T12:00:37;100820.72;;;30.83;31.32
64753;BME280;61095;52.454;16.948;2023-06-22T12:05:39;100826.16;;;30.99;31.15
64753;BME280;61095;52.454;16.948;2023-06-22T12:10:39;100821.25;;;31.11;31.46
64753;BME280;61095;52.454;16.948;2023-06-22T12:15:40;100821.22;;;31.19;31.31
64753;BME280;61095;52.454;16.948;2023-06-22T12:20:41;100815.56;;;31.29;31.34
64753;BME280;61095;52.454;16.948;2023-06-22T12:25:44;100811.28;;;31.34;30.90
64753;BME280;61095;52.454;16.948;2023-06-22T12:30:45;100817.25;;;31.46;30.80
64753;BME280;61095;52.454;16.948;2023-06-22T12:35:46;100800.72;;;31.47;30.61
64753;BME280;61095;52.454;16.948;2023-06-22T12:40:47;100796.69;;;31.19;30.35
64753;BME280;61095;52.454;16.948;2023-06-22T12:45:47;100795.31;;;30.91;30.67
64753;BME280;61095;52.454;16.948;2023-06-22T12:50:49;100786.47;;;31.05;30.46
64753;BME280;61095;52.454;16.948;2023-06-22T12:55:49;100775.91;;;30.85;31.01
64753;BME280;61095;52.454;16.948;2023-06-22T13:00:50;100787.69;;;30.94;30.64
64753;BME280;61095;52.454;16.948;2023-06-22T13:05:52;100774.19;;;31.17;30.53
64753;BME280;61095;52.454;16.948;2023-06-22T13:10:52;100781.31;;;31.26;30.38
64753;BME280;61095;52.454;16.948;2023-06-22T13:15:53;100769.88;;;31.39;30.62
64753;BME280;61095;52.454;16.948;2023-06-22T13:20:55;100768.16;;;31.38;30.57
64753;BME280;61095;52.454;16.948;2023-06-22T13:25:55;100759.34;;;31.28;30.35
64753;BME280;61095;52.454;16.948;2023-06-22T13:30:55;100754.88;;;31.35;30.14
64753;BME280;61095;52.454;16.948;2023-06-22T13:35:57;100753.19;;;31.42;30.63
64753;BME280;61095;52.454;16.948;2023-06-22T13:40:58;100748.19;;;31.54;30.62
64753;BME280;61095;52.454;16.948;2023-06-22T13:45:58;100748.84;;;31.64;30.68
64753;BME280;61095;52.454;16.948;2023-06-22T13:51:00;100746.41;;;31.69;30.67
64753;BME280;61095;52.454;16.948;2023-06-22T13:56:00;100736.34;;;31.69;30.42
64753;BME280;61095;52.454;16.948;2023-06-22T14:01:00;100736.72;;;31.58;30.93
64753;BME280;61095;52.454;16.948;2023-06-22T14:06:02;100745.56;;;31.68;30.86
64753;BME280;61095;52.454;16.948;2023-06-22T14:11:03;100744.72;;;31.68;30.61
64753;BME280;61095;52.454;16.948;2023-06-22T14:16:04;100737.09;;;31.55;30.22
64753;BME280;61095;52.454;16.948;2023-06-22T14:21:05;100730.25;;;31.59;30.62
64753;BME280;61095;52.454;16.948;2023-06-22T14:26:06;100732.97;;;31.67;30.34
64753;BME280;61095;52.454;16.948;2023-06-22T14:31:06;100729.69;;;31.72;30.44
64753;BME280;61095;52.454;16.948;2023-06-22T14:36:08;100725.75;;;31.74;29.76
64753;BME280;61095;52.454;16.948;2023-06-22T14:41:09;100724.41;;;31.70;29.92
64753;BME280;61095;52.454;16.948;2023-06-22T14:46:09;100725.50;;;31.53;30.32
64753;BME280;61095;52.454;16.948;2023-06-22T14:51:11;100718.81;;;31.64;30.32
64753;BME280;61095;52.454;16.948;2023-06-22T14:56:12;100721.72;;;31.62;30.31
64753;BME280;61095;52.454;16.948;2023-06-22T15:01:13;100716.34;;;31.46;30.28
64753;BME280;61095;52.454;16.948;2023-06-22T15:06:15;100711.38;;;30.94;30.64
64753;BME280;61095;52.454;16.948;2023-06-22T15:11:15;100725.28;;;31.07;30.86
64753;BME280;61095;52.454;16.948;2023-06-22T15:16:15;100715.94;;;31.02;30.25
64753;BME280;61095;52.454;16.948;2023-06-22T15:21:17;100706.53;;;31.21;30.20
64753;BME280;61095;52.454;16.948;2023-06-22T15:26:18;100698.06;;;30.99;30.59
64753;BME280;61095;52.454;16.948;2023-06-22T15:31:18;100701.47;;;30.93;30.37
64753;BME280;61095;52.454;16.948;2023-06-22T15:36:20;100686.50;;;30.81;30.03
64753;BME280;61095;52.454;16.948;2023-06-22T15:41:20;100687.91;;;30.61;30.34
64753;BME280;61095;52.454;16.948;2023-06-22T15:46:20;100688.75;;;30.61;30.67
64753;BME280;61095;52.454;16.948;2023-06-22T15:51:22;100686.84;;;30.78;30.55
64753;BME280;61095;52.454;16.948;2023-06-22T15:56:23;100684.81;;;30.72;30.00
64753;BME280;61095;52.454;16.948;2023-06-22T16:01:23;100676.44;;;30.81;30.33
64753;BME280;61095;52.454;16.948;2023-06-22T16:06:25;100670.69;;;30.68;30.12
64753;BME280;61095;52.454;16.948;2023-06-22T16:11:26;100662.69;;;30.75;30.34
64753;BME280;61095;52.454;16.948;2023-06-22T16:16:26;100656.56;;;30.73;30.15
64753;BME280;61095;52.454;16.948;2023-06-22T16:21:28;100659.50;;;30.55;30.62
64753;BME280;61095;52.454;16.948;2023-06-22T16:26:30;100651.81;;;30.50;31.12
64753;BME280;61095;52.454;16.948;2023-06-22T16:31:31;100651.66;;;30.60;30.79
64753;BME280;61095;52.454;16.948;2023-06-22T16:36:32;100635.63;;;30.65;31.00
64753;BME280;61095;52.454;16.948;2023-06-22T16:41:33;100631.72;;;30.68;30.42
64753;BME280;61095;52.454;16.948;2023-06-22T16:46:34;100628.47;;;30.64;30.62
64753;BME280;61095;52.454;16.948;2023-06-22T16:51:35;100617.09;;;30.61;30.55
64753;BME280;61095;52.454;16.948;2023-06-22T16:56:36;100607.72;;;30.47;30.69
64753;BME280;61095;52.454;16.948;2023-06-22T17:01:46;100603.31;;;30.30;30.77
64753;BME280;61095;52.454;16.948;2023-06-22T17:06:54;100596.53;;;30.09;31.30
64753;BME280;61095;52.454;16.948;2023-06-22T17:11:59;100590.75;;;30.04;31.12
64753;BME280;61095;52.454;16.948;2023-06-22T17:17:01;100579.47;;;29.99;31.38
64753;BME280;61095;52.454;16.948;2023-06-22T17:22:04;100586.97;;;29.73;33.02
64753;BME280;61095;52.454;16.948;2023-06-22T17:27:04;100589.81;;;29.47;33.58
64753;BME280;61095;52.454;16.948;2023-06-22T17:32:06;100592.97;;;29.34;33.08
64753;BME280;61095;52.454;16.948;2023-06-22T17:37:07;100589.19;;;29.11;33.77
64753;BME280;61095;52.454;16.948;2023-06-22T17:42:08;100590.31;;;29.00;34.12
64753;BME280;61095;52.454;16.948;2023-06-22T17:47:08;100579.00;;;28.79;34.02
64753;BME280;61095;52.454;16.948;2023-06-22T17:52:16;100580.50;;;28.73;33.84
64753;BME280;61095;52.454;16.948;2023-06-22T17:57:17;100576.91;;;28.64;34.43
64753;BME280;61095;52.454;16.948;2023-06-22T18:02:21;100556.88;;;28.65;34.40
64753;BME280;61095;52.454;16.948;2023-06-22T18:07:24;100547.63;;;28.50;34.93
64753;BME280;61095;52.454;16.948;2023-06-22T18:12:27;100537.56;;;28.43;34.89
64753;BME280;61095;52.454;16.948;2023-06-22T18:17:28;100543.00;;;28.43;35.12
64753;BME280;61095;52.454;16.948;2023-06-22T18:22:30;100541.66;;;28.47;35.06
64753;BME280;61095;52.454;16.948;2023-06-22T18:27:32;100533.41;;;28.30;35.88
64753;BME280;61095;52.454;16.948;2023-06-22T18:32:35;100526.97;;;28.31;36.01
64753;BME280;61095;52.454;16.948;2023-06-22T18:37:39;100522.88;;;28.27;36.26
64753;BME280;61095;52.454;16.948;2023-06-22T18:42:43;100514.06;;;28.07;36.49
64753;BME280;61095;52.454;16.948;2023-06-22T18:47:54;100502.47;;;27.97;37.18
64753;BME280;61095;52.454;16.948;2023-06-22T18:53:03;100494.66;;;27.94;37.39
64753;BME280;61095;52.454;16.948;2023-06-22T18:58:14;100498.66;;;27.64;38.25
64753;BME280;61095;52.454;16.948;2023-06-22T19:03:28;100494.09;;;27.65;38.64
64753;BME280;61095;52.454;16.948;2023-06-22T19:09:12;100503.44;;;27.53;38.98
64753;BME280;61095;52.454;16.948;2023-06-22T19:14:18;100507.88;;;27.54;39.02
64753;BME280;61095;52.454;16.948;2023-06-22T19:19:19;100504.09;;;27.47;39.27
64753;BME280;61095;52.454;16.948;2023-06-22T19:24:29;100499.84;;;27.26;39.85
64753;BME280;61095;52.454;16.948;2023-06-22T19:29:30;100500.94;;;27.16;40.00
64753;BME280;61095;52.454;16.948;2023-06-22T19:34:34;100495.13;;;27.28;40.01
64753;BME280;61095;52.454;16.948;2023-06-22T19:39:36;100501.16;;;27.40;39.99
64753;BME280;61095;52.454;16.948;2023-06-22T19:44:36;100499.91;;;27.34;40.15
64753;BME280;61095;52.454;16.948;2023-06-22T19:49:37;100499.47;;;27.21;40.80
64753;BME280;61095;52.454;16.948;2023-06-22T19:54:39;100469.13;;;27.18;40.53
64753;BME280;61095;52.454;16.948;2023-06-22T19:59:40;100466.72;;;27.05;41.02
64753;BME280;61095;52.454;16.948;2023-06-22T20:04:40;100479.34;;;26.96;41.89
64753;BME280;61095;52.454;16.948;2023-06-22T20:09:42;100465.88;;;27.04;41.58
64753;BME280;61095;52.454;16.948;2023-06-22T20:14:42;100468.91;;;27.01;41.78
64753;BME280;61095;52.454;16.948;2023-06-22T20:19:43;100478.19;;;26.99;41.88
64753;BME280;61095;52.454;16.948;2023-06-22T20:24:44;100463.78;;;26.80;42.20
64753;BME280;61095;52.454;16.948;2023-06-22T20:29:45;100458.81;;;26.76;42.29
64753;BME280;61095;52.454;16.948;2023-06-22T20:34:46;100462.69;;;26.73;42.07
64753;BME280;61095;52.454;16.948;2023-06-22T20:39:47;100469.69;;;26.66;42.14
64753;BME280;61095;52.454;16.948;2023-06-22T20:44:48;100473.00;;;26.60;42.18
64753;BME280;61095;52.454;16.948;2023-06-22T20:49:48;100481.72;;;26.54;42.25
64753;BME280;61095;52.454;16.948;2023-06-22T20:54:50;100471.88;;;26.53;42.43
64753;BME280;61095;52.454;16.948;2023-06-22T20:59:51;100445.25;;;26.48;42.50
64753;BME280;61095;52.454;16.948;2023-06-22T21:04:51;100438.91;;;26.40;42.38
64753;BME280;61095;52.454;16.948;2023-06-22T21:09:53;100448.06;;;26.29;42.59
64753;BME280;61095;52.454;16.948;2023-06-22T21:14:53;100434.72;;;26.18;43.17
64753;BME280;61095;52.454;16.948;2023-06-22T21:19:53;100443.03;;;26.07;43.84
64753;BME280;61095;52.454;16.948;2023-06-22T21:25:05;100431.25;;;25.98;43.67
64753;BME280;61095;52.454;16.948;2023-06-22T21:30:08;100427.44;;;25.81;43.67
64753;BME280;61095;52.454;16.948;2023-06-22T21:35:09;100432.69;;;25.73;43.34
64753;BME280;61095;52.454;16.948;2023-06-22T21:40:11;100433.44;;;25.66;43.20
64753;BME280;61095;52.454;16.948;2023-06-22T21:45:12;100437.97;;;25.65;43.13
64753;BME280;61095;52.454;16.948;2023-06-22T21:50:12;100437.16;;;25.55;42.86
64753;BME280;61095;52.454;16.948;2023-06-22T21:55:14;100429.19;;;25.53;42.86
